Time;durP1;ratioP1;P1;durP2;ratioP2;P2;SDS_P1;SDS_P2;PMS_P1;PMS_P2;Temp;Humidity;BMP_temperature;BMP_pressure;BME280_temperature;BME280_humidity;BME280_pressure;Samples;Min_cycle;Max_cycle;Signal;HPM_P1;HPM_P2
2022/07/31 00:00:16;;;;;;;0.70;0.70;;;17.00;74.80;;;17.15;61.82;95044.22;5044259;28;20577;-78
2022/07/31 00:02:43;;;;;;;0.60;0.60;;;17.00;74.80;;;17.13;62.84;95047.91;5028132;28;20655;-78
2022/07/31 00:05:11;;;;;;;0.50;0.50;;;17.00;75.10;;;17.12;62.09;95043.66;5011453;28;20205;-79
2022/07/31 00:07:38;;;;;;;0.60;0.60;;;17.00;75.10;;;17.12;62.58;95045.50;5011509;28;20695;-79
2022/07/31 00:10:06;;;;;;;0.50;0.50;;;17.00;75.20;;;17.11;62.23;95042.03;4995293;28;20688;-79
2022/07/31 00:12:34;;;;;;;0.50;0.50;;;17.00;75.30;;;17.09;62.48;95045.97;5027819;28;20224;-79
2022/07/31 00:15:06;;;;;;;0.50;0.50;;;16.90;75.50;;;17.07;62.86;95046.16;4995716;28;20228;-79
2022/07/31 00:17:33;;;;;;;0.60;0.60;;;16.90;75.50;;;17.07;63.00;95043.53;5011427;28;20208;-79
2022/07/31 00:20:01;;;;;;;0.50;0.50;;;16.90;75.40;;;17.04;62.51;95049.28;5027624;28;20219;-78
2022/07/31 00:22:28;;;;;;;0.57;0.57;;;16.90;75.50;;;17.03;62.67;95052.97;5011379;28;20204;-78
2022/07/31 00:24:55;;;;;;;0.60;0.60;;;16.90;75.60;;;17.02;63.49;95050.56;5011189;28;20651;-79
2022/07/31 00:27:23;;;;;;;0.50;0.50;;;16.80;75.90;;;17.00;62.39;95053.41;5011442;28;20244;-78
2022/07/31 00:29:50;;;;;;;0.52;0.52;;;16.90;75.80;;;17.00;62.52;95052.63;5011848;28;20216;-78
2022/07/31 00:32:18;;;;;;;0.60;0.60;;;16.80;75.60;;;17.00;62.52;95052.63;5011149;28;20231;-78
2022/07/31 00:34:45;;;;;;;0.60;0.60;;;16.80;75.60;;;16.97;62.67;95053.88;5027578;28;20579;-78
2022/07/31 00:37:12;;;;;;;0.60;0.60;;;16.80;75.80;;;16.97;62.68;95056.53;4994955;28;20220;-79
2022/07/31 00:39:42;;;;;;;0.55;0.55;;;16.80;75.70;;;16.94;62.41;95054.34;4995482;28;20227;-78
2022/07/31 00:42:21;;;;;;;0.50;0.50;;;16.80;75.90;;;16.91;64.31;95052.13;5011151;28;20244;-78
2022/07/31 00:44:49;;;;;;;0.50;0.50;;;16.80;76.80;;;16.91;64.13;95057.44;5011178;28;20173;-79
2022/07/31 00:47:17;;;;;;;0.50;0.50;;;16.80;76.50;;;16.91;63.83;95057.44;4994959;28;20225;-78
2022/07/31 00:49:50;;;;;;;0.60;0.60;;;16.80;76.60;;;16.90;64.29;95063.75;5014940;28;20543;-79
2022/07/31 00:52:17;;;;;;;0.60;0.60;;;16.70;76.50;;;16.87;64.05;95066.84;5015167;28;20774;-78
2022/07/31 00:54:45;;;;;;;0.40;0.40;;;16.70;76.50;;;16.88;63.58;95064.00;4998716;28;20247;-79
2022/07/31 00:57:14;;;;;;;0.50;0.50;;;16.70;76.60;;;16.86;65.19;95065.25;5031206;28;20286;-79
2022/07/31 00:59:42;;;;;;;0.50;0.50;;;16.70;77.00;;;16.86;64.06;95054.66;4998632;28;20263;-78
2022/07/31 01:02:10;;;;;;;0.57;0.57;;;16.70;76.70;;;16.84;64.10;95059.38;5031361;28;20683;-78
2022/07/31 01:04:37;;;;;;;0.50;0.50;;;16.70;76.70;;;16.81;64.63;95064.06;5031437;28;20209;-79
2022/07/31 01:07:08;;;;;;;0.55;0.55;;;16.70;76.80;;;16.83;63.68;95066.50;4998879;28;20224;-78
2022/07/31 01:09:35;;;;;;;0.70;0.70;;;16.70;76.80;;;16.81;64.60;95065.94;5031284;28;20247;-79
2022/07/31 01:12:14;;;;;;;0.50;0.50;;;16.70;76.90;;;16.80;64.37;95066.97;5014603;28;20217;-79
2022/07/31 01:14:48;;;;;;;0.60;0.60;;;16.70;77.10;;;16.79;64.36;95074.06;5031363;28;20239;-79
2022/07/31 01:17:18;;;;;;;0.50;0.50;;;16.70;77.30;;;16.75;65.26;95075.56;4998658;28;20235;-79
2022/07/31 01:19:48;;;;;;;0.40;0.40;;;16.70;77.10;;;16.77;64.40;95070.03;5014465;28;20212;-78
2022/07/31 01:22:35;;;;;;;0.60;0.60;;;16.70;77.20;;;16.74;64.65;95070.50;5031212;28;20217;-79
2022/07/31 01:25:28;;;;;;;0.50;0.50;;;16.70;77.40;;;16.72;65.08;95077.88;5014687;28;20267;-79
2022/07/31 01:28:29;;;;;;;0.57;0.57;;;16.70;77.80;;;16.69;65.38;95076.47;5014421;28;20283;-78
2022/07/31 01:31:05;;;;;;;0.50;0.50;;;16.70;78.00;;;16.72;65.18;95069.91;5030810;28;20308;-79
2022/07/31 01:34:04;;;;;;;0.50;0.50;;;16.70;77.90;;;16.69;65.46;95079.13;5027729;28;20211;-79
2022/07/31 01:36:36;;;;;;;0.50;0.50;;;16.70;77.70;;;16.72;65.81;95076.03;5014021;28;20221;-78
2022/07/31 01:39:04;;;;;;;0.50;0.50;;;16.70;77.90;;;16.73;66.31;95068.91;5030866;28;20302;-79
2022/07/31 01:41:39;;;;;;;0.50;0.50;;;16.70;79.00;;;16.79;65.96;95074.06;5014157;28;20596;-79
2022/07/31 01:44:09;;;;;;;0.60;0.60;;;16.70;78.50;;;16.81;65.94;95065.94;5047321;28;20583;-78
2022/07/31 01:46:42;;;;;;;0.50;0.50;;;16.70;78.40;;;16.88;66.78;95066.63;4998232;28;20636;-78
2022/07/31 01:49:12;;;;;;;0.50;0.50;;;16.80;78.90;;;16.88;66.96;95057.88;4997944;28;20566;-78
2022/07/31 01:51:43;;;;;;;0.60;0.60;;;16.80;78.80;;;16.95;67.77;95066.53;4997707;28;20271;-78
2022/07/31 01:54:11;;;;;;;0.50;0.50;;;16.90;79.20;;;17.01;66.37;95054.25;5031172;28;20197;-79
2022/07/31 01:56:40;;;;;;;0.40;0.40;;;16.90;79.00;;;17.05;66.07;95052.75;5013995;28;20221;-79
2022/07/31 01:59:09;;;;;;;0.50;0.50;;;16.90;78.70;;;17.07;66.07;95058.63;4997521;28;20225;-79
2022/07/31 02:02:07;;;;;;;0.50;0.50;;;17.00;78.60;;;17.08;65.53;95060.25;5030421;28;20312;-78
2022/07/31 02:04:36;;;;;;;0.60;0.60;;;17.00;78.40;;;17.08;66.30;95062.91;5013699;28;20200;-78
2022/07/31 02:07:07;;;;;;;0.50;0.50;;;17.00;78.40;;;17.08;66.23;95047.00;4997428;28;20209;-79
2022/07/31 02:09:35;;;;;;;0.50;0.50;;;17.10;78.80;;;17.12;66.24;95056.09;5013767;28;20247;-79
2022/07/31 02:12:04;;;;;;;0.50;0.50;;;17.00;78.60;;;17.15;66.01;95044.22;4997143;28;20209;-78
2022/07/31 02:14:42;;;;;;;0.50;0.50;;;17.10;79.00;;;17.16;65.87;95054.59;4997936;28;20251;-79
2022/07/31 02:17:12;;;;;;;0.50;0.50;;;17.10;78.90;;;17.13;65.76;95044.47;4997537;28;20287;-79
2022/07/31 02:20:15;;;;;;;0.50;0.50;;;17.10;78.70;;;17.15;65.78;95045.03;5020713;28;20248;-77
2022/07/31 02:22:44;;;;;;;0.50;0.50;;;17.10;78.60;;;17.19;66.48;95046.19;4997535;28;20220;-78
2022/07/31 02:25:11;;;;;;;0.50;0.50;;;17.10;78.60;;;17.20;66.21;95053.09;4997127;28;20569;-78
2022/07/31 02:27:41;;;;;;;0.50;0.50;;;17.20;78.60;;;17.19;66.19;95046.19;5013022;28;20232;-79
2022/07/31 02:30:31;;;;;;;0.60;0.60;;;17.20;78.90;;;17.19;66.51;95056.78;5029676;28;20667;-78
2022/07/31 02:33:13;;;;;;;0.50;0.50;;;17.10;79.40;;;17.17;66.64;95039.50;5031175;28;20235;-78
2022/07/31 02:35:46;;;;;;;0.55;0.55;;;17.20;79.10;;;17.19;66.97;95042.75;5012914;28;20220;-79
2022/07/31 02:38:21;;;;;;;0.52;0.52;;;17.20;79.00;;;17.20;66.38;95046.97;5045968;28;20228;-79
2022/07/31 02:40:58;;;;;;;0.60;0.60;;;17.20;79.20;;;17.21;66.09;95044.13;4998512;28;20675;-79
2022/07/31 02:43:30;;;;;;;0.50;0.50;;;17.20;79.10;;;17.21;67.09;95043.28;4997290;28;20223;-78
2022/07/31 02:46:02;;;;;;;0.70;0.70;;;17.20;79.20;;;17.21;67.59;95052.06;5013276;28;20252;-79
2022/07/31 02:48:31;;;;;;;0.50;0.50;;;17.30;79.60;;;17.22;67.18;95048.38;5029787;28;20247;-79
2022/07/31 02:51:03;;;;;;;0.50;0.50;;;17.20;79.40;;;17.23;67.09;95047.31;4997080;28;20228;-79
2022/07/31 02:53:31;;;;;;;0.60;0.60;;;17.20;79.30;;;17.22;66.58;95050.22;5029505;28;20208;-78
2022/07/31 02:56:03;;;;;;;0.60;0.60;;;17.30;79.20;;;17.23;66.71;95049.97;5029702;28;20705;-79
2022/07/31 02:58:32;;;;;;;0.50;0.50;;;17.20;79.00;;;17.25;66.23;95045.25;4997731;28;20231;-78
2022/07/31 03:01:03;;;;;;;0.57;0.57;;;17.30;78.90;;;17.23;66.52;95049.19;4996457;28;20232;-79
2022/07/31 03:03:32;;;;;;;0.50;0.50;;;17.20;78.90;;;17.21;66.52;95041.47;5029354;28;20571;-79
2022/07/31 03:05:59;;;;;;;0.52;0.52;;;17.20;78.90;;;17.22;66.13;95045.75;4996108;28;20307;-79
2022/07/31 03:08:27;;;;;;;0.50;0.50;;;17.20;78.70;;;17.15;66.11;95039.75;4996603;28;20204;-78
2022/07/31 03:10:57;;;;;;;0.60;0.60;;;17.20;78.50;;;17.16;66.76;95051.94;5045066;28;20232;-79
2022/07/31 03:13:28;;;;;;;0.50;0.50;;;17.20;78.50;;;17.11;66.56;95052.66;5012567;28;20199;-79
2022/07/31 03:15:57;;;;;;;0.57;0.57;;;17.10;78.70;;;17.06;66.31;95054.34;5005713;28;20258;-79
2022/07/31 03:18:25;;;;;;;0.60;0.60;;;17.10;78.60;;;17.00;66.38;95042.81;4980078;28;20201;-79
2022/07/31 03:20:55;;;;;;;0.50;0.50;;;17.10;78.70;;;17.00;66.87;95048.13;5012326;28;20629;-79
2022/07/31 03:23:26;;;;;;;0.50;0.50;;;17.00;78.80;;;16.96;65.95;95041.66;5003201;28;20200;-79
2022/07/31 03:26:02;;;;;;;0.60;0.60;;;17.00;78.60;;;16.93;66.16;95042.13;5012646;28;20224;-78
2022/07/31 03:28:33;;;;;;;0.43;0.43;;;16.90;78.50;;;16.91;66.10;95041.53;4993686;28;20192;-78
2022/07/31 03:31:02;;;;;;;0.50;0.50;;;16.90;79.20;;;16.86;65.90;95044.84;5001157;28;20215;-79
2022/07/31 03:33:30;;;;;;;0.60;0.60;;;16.90;78.40;;;16.82;65.77;95049.00;4995795;28;20243;-78
2022/07/31 03:35:57;;;;;;;0.50;0.50;;;16.80;78.30;;;16.78;65.97;95053.94;4995253;28;20311;-79
2022/07/31 03:38:25;;;;;;;0.50;0.50;;;16.80;78.50;;;16.72;65.82;95060.16;5011618;28;20677;-78
2022/07/31 03:41:20;;;;;;;0.50;0.50;;;16.70;78.50;;;16.70;66.29;95054.25;4998931;28;20521;-78
2022/07/31 03:43:49;;;;;;;0.50;0.50;;;16.70;78.40;;;16.68;65.87;95056.31;5011291;28;20197;-79
2022/07/31 03:46:21;;;;;;;0.50;0.50;;;16.70;78.60;;;16.64;65.82;95057.81;4994983;28;20698;-79
2022/07/31 03:48:50;;;;;;;0.50;0.50;;;16.60;78.60;;;16.62;65.50;95062.53;4994951;28;20211;-78
2022/07/31 03:51:20;;;;;;;0.65;0.65;;;16.60;78.50;;;16.58;65.96;95069.31;4995249;28;20239;-78
2022/07/31 03:53:48;;;;;;;0.50;0.50;;;16.50;78.50;;;16.56;66.23;95061.59;4995090;28;20189;-78
2022/07/31 03:56:45;;;;;;;0.50;0.50;;;16.50;78.80;;;16.52;66.07;95062.28;4995896;28;20228;-77
2022/07/31 03:59:16;;;;;;;0.50;0.50;;;16.50;78.90;;;16.50;66.17;95059.84;5011154;28;20228;-78
2022/07/31 04:01:44;;;;;;;0.50;0.50;;;16.40;78.70;;;16.46;66.64;95061.31;5010992;28;20209;-78
2022/07/31 04:05:03;;;;;;;0.50;0.50;;;16.40;78.60;;;16.42;66.60;95058.31;5000250;28;20573;-79
2022/07/31 04:07:37;;;;;;;0.50;0.50;;;16.40;78.70;;;16.44;65.90;95061.56;4977863;28;20816;-78
2022/07/31 04:10:06;;;;;;;0.70;0.70;;;16.40;79.00;;;16.44;66.48;95058.09;4985184;28;20208;-78
2022/07/31 04:12:33;;;;;;;0.57;0.57;;;16.40;79.10;;;16.46;66.20;95063.97;5010730;28;20208;-79
2022/07/31 04:15:00;;;;;;;0.50;0.50;;;16.40;79.10;;;16.47;66.76;95055.81;4978672;28;20204;-79
2022/07/31 04:17:28;;;;;;;0.50;0.50;;;16.40;79.10;;;16.47;67.29;95060.31;5010784;28;20311;-79
2022/07/31 04:19:59;;;;;;;0.40;0.40;;;16.40;79.10;;;16.52;66.58;95063.06;5010488;28;20315;-79
2022/07/31 04:22:29;;;;;;;0.60;0.60;;;16.40;79.10;;;16.55;66.61;95069.75;4993571;28;20730;-78
2022/07/31 04:24:58;;;;;;;0.50;0.50;;;16.40;79.10;;;16.57;66.60;95073.00;5026966;28;20207;-79
2022/07/31 04:27:45;;;;;;;0.50;0.50;;;16.50;79.20;;;16.60;66.09;95070.72;5013720;28;20211;-79
2022/07/31 04:30:15;;;;;;;0.52;0.52;;;16.50;79.20;;;16.65;66.75;95076.13;5010923;28;20671;-79
2022/07/31 04:32:43;;;;;;;0.50;0.50;;;16.50;79.40;;;16.67;66.68;95067.16;4978774;28;20197;-79
2022/07/31 04:35:25;;;;;;;0.50;0.50;;;16.50;79.20;;;16.71;66.53;95068.31;5150040;27;20561;-78
2022/07/31 04:37:52;;;;;;;0.57;0.57;;;16.60;79.30;;;16.76;66.74;95074.53;5108960;28;20193;-78
2022/07/31 04:40:21;;;;;;;0.57;0.57;;;16.70;79.40;;;16.81;66.36;95073.88;5109226;28;20230;-78
2022/07/31 04:42:49;;;;;;;0.60;0.60;;;16.70;79.40;;;16.84;66.57;95068.09;5091871;28;20274;-78
2022/07/31 04:45:16;;;;;;;0.50;0.50;;;16.70;79.40;;;16.86;66.40;95068.69;5092037;28;20189;-78
2022/07/31 04:47:43;;;;;;;0.50;0.50;;;16.80;79.40;;;16.91;66.76;95074.13;5108733;28;20204;-78
2022/07/31 04:50:10;;;;;;;0.50;0.50;;;16.80;79.50;;;16.96;66.34;95078.78;5092059;28;20185;-78
2022/07/31 04:52:53;;;;;;;0.50;0.50;;;16.80;79.40;;;17.00;66.67;95076.47;5079405;28;20190;-79
2022/07/31 04:55:23;;;;;;;0.43;0.43;;;16.90;79.50;;;17.04;66.87;95078.44;5091812;28;20690;-78
2022/07/31 04:57:50;;;;;;;0.55;0.55;;;16.90;79.50;;;17.07;66.83;95075.31;5108525;28;20639;-78
2022/07/31 05:00:17;;;;;;;0.40;0.40;;;17.00;79.60;;;17.10;66.89;95080.19;5108711;28;20190;-78
2022/07/31 05:02:45;;;;;;;0.50;0.50;;;17.00;79.60;;;17.15;66.76;95079.50;5091619;28;20568;-79
2022/07/31 05:05:12;;;;;;;0.50;0.50;;;17.10;79.70;;;17.19;66.74;95078.00;5108667;28;20708;-78
2022/07/31 05:07:41;;;;;;;0.50;0.50;;;17.10;79.70;;;17.24;66.78;95078.09;5091744;28;20551;-79
2022/07/31 05:11:21;;;;;;;0.50;0.50;;;17.20;79.70;;;17.27;67.30;95082.13;5109694;28;20327;-79
2022/07/31 05:13:01;;;;;;;0.50;0.50;;;17.20;79.80;;;17.33;66.56;95086.53;5094552;28;20221;-79
2022/07/31 05:15:31;;;;;;;0.60;0.60;;;17.30;79.80;;;17.38;66.54;95089.31;5091941;28;20197;-79
2022/07/31 05:17:59;;;;;;;0.50;0.50;;;17.30;79.80;;;17.39;67.12;95075.03;5091269;28;20243;-79
2022/07/31 05:20:46;;;;;;;0.50;0.50;;;17.40;79.80;;;17.47;66.57;95079.16;5090751;28;20619;-79
2022/07/31 05:23:41;;;;;;;0.50;0.50;;;17.50;79.90;;;17.53;66.88;95082.75;5092452;28;20563;-78
2022/07/31 05:26:18;;;;;;;0.50;0.50;;;17.50;79.90;;;17.59;67.13;95087.13;5109198;28;20209;-79
2022/07/31 05:28:48;;;;;;;0.55;0.55;;;17.60;80.00;;;17.66;66.46;95077.16;5108540;28;20197;-78
2022/07/31 05:31:17;;;;;;;0.50;0.50;;;17.60;79.70;;;17.73;66.58;95077.06;5091260;28;20595;-79
2022/07/31 05:33:47;;;;;;;0.50;0.50;;;17.70;79.90;;;17.79;66.76;95085.94;5090635;28;20225;-79
2022/07/31 05:36:16;;;;;;;0.50;0.50;;;17.70;79.80;;;17.90;66.60;95085.91;5091072;28;20554;-79
2022/07/31 05:38:44;;;;;;;0.45;0.45;;;17.80;79.70;;;17.95;66.28;95077.28;5107832;28;20280;-78
2022/07/31 05:41:35;;;;;;;0.50;0.50;;;17.90;79.50;;;18.00;66.06;95084.56;5100128;28;20225;-79
2022/07/31 05:44:10;;;;;;;0.52;0.52;;;18.00;79.50;;;18.08;66.30;95082.34;5092260;28;20202;-79
2022/07/31 05:46:44;;;;;;;0.52;0.52;;;18.00;79.40;;;18.15;65.87;95089.34;5078929;28;20234;-79
2022/07/31 05:49:11;;;;;;;0.40;0.40;;;18.10;79.20;;;18.22;66.20;95082.06;5077433;28;20679;-79
2022/07/31 05:51:43;;;;;;;0.50;0.50;;;18.20;79.20;;;18.27;65.29;95073.41;5077571;28;20301;-78
2022/07/31 05:54:10;;;;;;;0.50;0.50;;;18.20;79.00;;;18.33;65.69;95094.50;5077253;28;20582;-79
2022/07/31 05:56:55;;;;;;;0.60;0.60;;;18.30;79.00;;;18.38;65.36;95081.34;5094090;28;20793;-79
2022/07/31 05:59:37;;;;;;;0.50;0.50;;;18.30;78.90;;;18.47;65.21;95081.75;5079384;28;20351;-79
2022/07/31 06:02:04;;;;;;;0.40;0.40;;;18.40;78.80;;;18.51;64.94;95074.91;5077296;28;20588;-79
2022/07/31 06:04:50;;;;;;;0.50;0.50;;;18.50;78.50;;;18.57;65.32;95086.44;5065529;28;20288;-78
2022/07/31 06:07:17;;;;;;;0.40;0.40;;;18.50;78.50;;;18.64;65.19;95079.16;5077003;28;20753;-80
2022/07/31 06:09:45;;;;;;;0.52;0.52;;;18.60;78.40;;;18.70;64.92;95088.00;5077101;28;20656;-79
2022/07/31 06:12:15;;;;;;;0.50;0.50;;;18.60;78.10;;;18.77;64.57;95078.03;5060998;28;20609;-79
2022/07/31 06:14:42;;;;;;;0.50;0.50;;;18.70;78.20;;;18.85;64.39;95074.97;5060356;28;20683;-78
2022/07/31 06:17:17;;;;;;;0.50;0.50;;;18.80;78.20;;;18.93;64.47;95065.03;5077617;28;20675;-78
2022/07/31 06:19:44;;;;;;;0.40;0.40;;;18.80;78.10;;;19.05;64.30;95073.75;5076921;28;20263;-78
2022/07/31 06:22:12;;;;;;;0.50;0.50;;;18.90;78.10;;;19.15;64.16;95079.25;5076287;28;20296;-78
2022/07/31 06:24:39;;;;;;;0.50;0.50;;;19.00;78.00;;;19.24;64.43;95074.31;5076634;28;20205;-78
2022/07/31 06:27:08;;;;;;;0.50;0.50;;;19.10;77.90;;;19.36;63.86;95083.00;5060372;28;20214;-78
2022/07/31 06:29:56;;;;;;;0.45;0.45;;;19.20;77.90;;;19.42;63.56;95075.94;5075354;28;20201;-78
2022/07/31 06:32:23;;;;;;;0.52;0.52;;;19.30;77.50;;;19.48;63.08;95079.44;5059701;28;20202;-78
2022/07/31 06:34:52;;;;;;;0.40;0.40;;;19.40;77.20;;;19.55;62.57;95084.63;5089700;28;20318;-78
2022/07/31 06:37:20;;;;;;;0.40;0.40;;;19.50;77.00;;;19.63;63.31;95092.97;5076284;28;20218;-78
2022/07/31 06:39:48;;;;;;;0.47;0.47;;;19.60;77.00;;;19.73;62.99;95081.66;5076493;28;20286;-78
2022/07/31 06:42:46;;;;;;;0.40;0.40;;;19.70;77.20;;;19.78;62.79;95079.06;5093329;28;20198;-78
2022/07/31 06:45:46;;;;;;;0.47;0.47;;;19.70;76.60;;;19.87;61.95;95081.34;5081067;28;20218;-78
2022/07/31 06:48:38;;;;;;;0.40;0.40;;;19.80;76.40;;;19.96;61.55;95080.69;5106017;28;20233;-78
2022/07/31 06:51:09;;;;;;;0.40;0.40;;;19.90;76.40;;;20.05;61.65;95082.91;5109046;28;20745;-78
2022/07/31 06:53:58;;;;;;;0.40;0.40;;;20.00;76.10;;;20.09;61.49;95070.69;5092456;28;20267;-77
2022/07/31 06:56:26;;;;;;;0.50;0.50;;;20.10;75.70;;;20.18;60.46;95073.72;5075544;28;20267;-78
2022/07/31 06:58:54;;;;;;;0.40;0.40;;;20.20;75.30;;;20.23;60.57;95079.16;5108789;28;20204;-78
2022/07/31 07:01:21;;;;;;;0.40;0.40;;;20.20;75.00;;;20.28;60.83;95068.53;5109499;28;20209;-78
2022/07/31 07:03:49;;;;;;;0.40;0.40;;;20.30;75.20;;;20.37;60.57;95061.69;5109597;28;20190;-78
2022/07/31 07:06:17;;;;;;;0.47;0.47;;;20.40;75.20;;;20.43;60.70;95074.06;5075753;28;20262;-78
2022/07/31 07:08:45;;;;;;;0.43;0.43;;;20.40;75.00;;;20.51;59.83;95079.97;5092430;28;20191;-77
2022/07/31 07:11:15;;;;;;;0.40;0.40;;;20.50;74.20;;;20.55;59.32;95057.91;5092281;28;20222;-78
2022/07/31 07:13:42;;;;;;;0.40;0.40;;;20.60;74.60;;;20.60;59.72;95057.16;5126129;27;20190;-79
2022/07/31 07:16:15;;;;;;;0.50;0.50;;;20.60;74.30;;;20.72;60.10;95063.16;5060541;28;20218;-79
2022/07/31 07:18:43;;;;;;;0.40;0.40;;;20.70;74.70;;;20.82;59.82;95065.13;5109411;28;20198;-78
2022/07/31 07:21:11;;;;;;;0.40;0.40;;;20.80;74.50;;;20.90;59.33;95055.88;5075713;28;20692;-79
2022/07/31 07:23:39;;;;;;;0.40;0.40;;;20.90;74.20;;;20.99;59.49;95061.53;5075554;28;20645;-79
2022/07/31 07:26:35;;;;;;;0.70;0.70;;;20.90;73.90;;;21.08;59.50;95050.16;5096503;27;20693;-78
2022/07/31 07:29:03;;;;;;;0.40;0.40;;;21.00;74.30;;;21.22;59.59;95055.06;5108856;28;20198;-79
2022/07/31 07:31:30;;;;;;;0.50;0.50;;;21.10;74.50;;;21.32;59.38;95057.00;5091895;28;20220;-78
2022/07/31 07:33:57;;;;;;;0.40;0.40;;;21.20;74.30;;;21.44;59.51;95050.38;5091800;28;20207;-79
2022/07/31 07:36:25;;;;;;;0.30;0.30;;;21.40;74.40;;;21.55;58.60;95058.47;5125989;27;20216;-79
2022/07/31 07:38:56;;;;;;;0.47;0.47;;;21.40;73.80;;;21.67;57.84;95053.78;5077059;28;20267;-79
2022/07/31 07:41:24;;;;;;;0.40;0.40;;;21.60;73.00;;;21.72;56.87;95050.34;5088900;28;20298;-78
2022/07/31 07:43:51;;;;;;;0.30;0.30;;;21.70;72.40;;;21.78;55.14;95059.19;5075172;28;20248;-79
2022/07/31 07:46:23;;;;;;;0.40;0.40;;;21.70;71.30;;;21.86;56.63;95056.00;5091673;28;20591;-78
2022/07/31 07:48:55;;;;;;;0.40;0.40;;;21.80;71.80;;;21.96;57.16;95055.25;5059715;28;20207;-80
2022/07/31 07:51:45;;;;;;;0.50;0.50;;;21.90;71.80;;;22.01;54.74;95049.94;5105273;28;20252;-79
2022/07/31 07:54:41;;;;;;;0.40;0.40;;;22.00;70.40;;;22.06;55.71;95053.44;5105272;28;20333;-79
2022/07/31 07:57:21;;;;;;;0.60;0.60;;;22.10;70.80;;;22.20;56.23;95050.28;5093198;28;20216;-78
2022/07/31 08:00:10;;;;;;;0.30;0.30;;;22.20;71.10;;;22.31;54.68;95053.78;5092053;28;20558;-78
2022/07/31 08:02:47;;;;;;;0.40;0.40;;;22.30;70.10;;;22.47;55.87;95054.66;5076104;28;20186;-78
2022/07/31 08:05:39;;;;;;;0.40;0.40;;;22.40;70.70;;;22.66;56.39;95052.31;5081549;28;20241;-78
2022/07/31 08:08:06;;;;;;;0.30;0.30;;;22.60;71.30;;;22.85;54.94;95044.56;5090650;28;20198;-78
2022/07/31 08:10:48;;;;;;;0.40;0.40;;;22.70;70.50;;;22.95;53.82;95055.28;5090932;28;20210;-78
2022/07/31 08:13:23;;;;;;;0.40;0.40;;;22.90;69.60;;;23.01;54.44;95051.53;5074770;28;20197;-79
2022/07/31 08:16:09;;;;;;;0.55;0.55;;;23.00;69.80;;;23.01;52.58;95048.06;5091521;28;20363;-79
2022/07/31 08:18:50;;;;;;;0.60;0.60;;;23.00;68.90;;;22.97;52.16;95053.16;5075168;28;20913;-78
2022/07/31 08:21:18;;;;;;;0.30;0.30;;;23.10;68.30;;;23.01;53.31;95046.19;5074250;28;20676;-79
2022/07/31 08:23:46;;;;;;;0.30;0.30;;;23.10;68.30;;;23.08;53.09;95039.75;5074876;28;20293;-79
2022/07/31 08:26:16;;;;;;;0.38;0.38;;;23.10;68.20;;;23.14;53.68;95036.00;5074825;28;20237;-79
2022/07/31 08:28:46;;;;;;;0.40;0.40;;;23.10;68.60;;;23.21;52.41;95044.59;5074959;28;20652;-79
2022/07/31 08:31:20;;;;;;;0.40;0.40;;;23.20;67.80;;;23.27;52.16;95035.50;5074873;28;20217;-79
2022/07/31 08:34:03;;;;;;;0.30;0.30;;;23.20;67.30;;;23.32;52.95;95048.88;5076556;28;20212;-78
2022/07/31 08:36:32;;;;;;;0.30;0.30;;;23.30;68.10;;;23.39;51.36;95037.91;5075124;28;20309;-78
2022/07/31 08:39:02;;;;;;;0.40;0.40;;;23.30;67.00;;;23.39;50.50;95037.91;5091271;28;20190;-78
2022/07/31 08:41:56;;;;;;;0.40;0.40;;;23.40;66.30;;;23.41;51.16;95041.13;5078303;28;20316;-78
2022/07/31 08:44:23;;;;;;;0.32;0.32;;;23.40;66.50;;;23.47;50.92;95023.97;5057886;28;20201;-79
2022/07/31 08:46:58;;;;;;;0.40;0.40;;;23.40;66.50;;;23.53;49.51;95019.38;5059718;28;20249;-79
2022/07/31 08:49:29;;;;;;;0.30;0.30;;;23.60;66.30;;;23.61;50.67;95020.72;5074416;28;20647;-79
2022/07/31 08:51:58;;;;;;;0.30;0.30;;;23.60;66.30;;;23.71;49.71;95034.09;5074280;28;20218;-77
2022/07/31 08:54:53;;;;;;;0.30;0.30;;;23.60;66.30;;;23.80;50.20;95021.75;5074121;28;20230;-78
2022/07/31 08:57:22;;;;;;;0.30;0.30;;;23.80;66.10;;;23.90;50.05;95033.47;5079517;28;20219;-78
2022/07/31 08:59:51;;;;;;;0.40;0.40;;;23.80;66.50;;;24.02;50.67;95031.31;5064386;28;20201;-78
2022/07/31 09:02:18;;;;;;;0.50;0.50;;;23.90;66.60;;;24.09;48.75;95031.81;5070202;28;20226;-78
2022/07/31 09:05:06;;;;;;;0.35;0.35;;;24.00;66.30;;;24.17;49.93;95019.75;5091078;28;20197;-79
2022/07/31 09:07:33;;;;;;;0.30;0.30;;;24.10;65.80;;;24.25;49.11;95029.09;5090717;28;20224;-78
2022/07/31 09:10:07;;;;;;;0.50;0.50;;;24.20;65.30;;;24.28;49.26;95025.88;5107814;28;20221;-79
2022/07/31 09:12:34;;;;;;;0.50;0.50;;;24.30;65.00;;;24.32;48.44;95026.91;5107843;28;20214;-78
2022/07/31 09:15:04;;;;;;;0.47;0.47;;;24.30;64.70;;;24.40;48.93;95026.34;5107331;28;20230;-78
2022/07/31 09:17:34;;;;;;;0.47;0.47;;;24.40;64.70;;;24.51;49.23;95029.75;5090651;28;20312;-78
2022/07/31 09:20:04;;;;;;;0.35;0.35;;;24.40;65.00;;;24.67;49.00;95022.44;5091131;28;20255;-79
2022/07/31 09:22:33;;;;;;;0.32;0.32;;;24.50;64.60;;;24.82;49.27;95018.84;5094464;28;20214;-78
2022/07/31 09:25:11;;;;;;;0.40;0.40;;;24.60;65.20;;;24.94;48.07;95013.94;5094679;28;20556;-78
2022/07/31 09:27:39;;;;;;;0.40;0.40;;;24.80;64.20;;;25.01;48.06;95018.97;5110940;28;20305;-79
2022/07/31 09:30:08;;;;;;;0.40;0.40;;;24.90;64.00;;;25.08;47.65;95014.09;5093511;28;20191;-78
2022/07/31 09:32:56;;;;;;;0.40;0.40;;;24.90;63.90;;;25.19;48.47;95009.41;5091638;28;20209;-78
2022/07/31 09:35:51;;;;;;;0.40;0.40;;;25.10;64.40;;;25.36;48.25;95006.31;5107542;28;20243;-78
2022/07/31 09:38:19;;;;;;;0.40;0.40;;;25.20;64.20;;;25.41;47.04;95005.50;5077524;28;20701;-79
2022/07/31 09:41:19;;;;;;;0.30;0.30;;;25.30;63.20;;;25.48;47.30;94999.81;5108070;28;20224;-79
2022/07/31 09:44:20;;;;;;;0.30;0.30;;;25.40;63.30;;;25.53;47.32;94989.78;5077964;28;20207;-78
2022/07/31 09:46:52;;;;;;;0.40;0.40;;;25.50;63.20;;;25.66;47.49;94998.25;5074583;28;20316;-78
2022/07/31 09:49:33;;;;;;;0.50;0.50;;;25.60;63.50;;;25.68;46.35;95002.28;5073612;28;20662;-77
2022/07/31 09:52:01;;;;;;;0.30;0.30;;;25.70;62.60;;;25.69;44.98;95000.38;5070004;28;20220;-78
2022/07/31 09:54:30;;;;;;;0.30;0.30;;;25.70;61.80;;;25.74;44.67;94989.56;5077333;28;20196;-78
2022/07/31 09:56:57;;;;;;;0.40;0.40;;;25.70;61.30;;;25.81;44.52;94997.28;5094133;28;20219;-78
2022/07/31 09:59:27;;;;;;;0.50;0.50;;;25.80;61.30;;;25.86;43.30;94979.22;5061547;28;20200;-77
2022/07/31 10:01:55;;;;;;;0.30;0.30;;;25.90;60.20;;;25.93;44.18;94986.13;5060261;28;20303;-78
2022/07/31 10:04:23;;;;;;;0.30;0.30;;;25.90;60.50;;;25.95;42.20;94973.19;5076911;28;20258;-77
2022/07/31 10:06:51;;;;;;;0.38;0.38;;;26.00;60.00;;;26.01;43.38;94982.78;5060367;28;20298;-78
2022/07/31 10:09:20;;;;;;;0.30;0.30;;;26.10;60.10;;;26.12;44.41;94975.44;5077004;28;20226;-79
2022/07/31 10:11:55;;;;;;;0.30;0.30;;;26.10;60.80;;;26.27;44.00;94977.94;5078001;28;20702;-78
2022/07/31 10:14:28;;;;;;;0.30;0.30;;;26.20;60.60;;;26.41;43.04;94990.66;5077005;28;20209;-77
2022/07/31 10:16:58;;;;;;;0.30;0.30;;;26.40;59.40;;;26.44;42.87;94982.81;5060006;28;20324;-78
2022/07/31 10:20:01;;;;;;;0.35;0.35;;;26.40;59.20;;;26.47;43.47;94976.03;5075985;28;20655;-77
2022/07/31 10:22:47;;;;;;;0.30;0.30;;;26.50;59.80;;;26.55;43.81;94980.75;5078911;28;20208;-78
2022/07/31 10:25:28;;;;;;;0.30;0.30;;;26.60;59.70;;;26.53;42.03;94982.94;5077629;28;20208;-79
2022/07/31 10:27:57;;;;;;;0.40;0.40;;;26.60;58.00;;;26.48;43.31;94988.41;5093281;28;20554;-77
2022/07/31 10:30:25;;;;;;;0.38;0.38;;;26.60;58.90;;;26.40;43.97;94978.28;5076272;28;20454;-78
2022/07/31 10:32:58;;;;;;;0.30;0.30;;;26.50;59.20;;;26.33;43.20;94978.63;5076859;28;20203;-78
2022/07/31 10:35:26;;;;;;;0.30;0.30;;;26.50;59.10;;;26.36;42.95;94978.06;5093518;28;20225;-78
2022/07/31 10:38:22;;;;;;;0.30;0.30;;;26.40;57.90;;;26.38;41.11;94975.91;5079286;28;20596;-77
2022/07/31 10:41:07;;;;;;;0.30;0.30;;;26.40;57.50;;;26.42;42.79;94971.53;5093094;28;20235;-78
2022/07/31 10:43:58;;;;;;;0.30;0.30;;;26.50;58.60;;;26.44;41.58;94979.28;5076355;28;20296;-78
2022/07/31 10:46:48;;;;;;;0.30;0.30;;;26.50;58.10;;;26.39;42.03;94980.19;5078160;28;20361;-78